Time;durP1;ratioP1;P1;durP2;ratioP2;P2;SDS_P1;SDS_P2;PMS_P1;PMS_P2;Temp;Humidity;BMP_temperature;BMP_pressure;BME280_temperature;BME280_humidity;BME280_pressure;Samples;Min_cycle;Max_cycle;Signal;HPM_P1;HPM_P2
2022/10/09 00:01:05;;;;;;;2.90;0.87;;;;;;;8.38;86.16;99820.34;1736708;81;20095;-61
2022/10/09 00:03:34;;;;;;;2.12;0.82;;;;;;;8.33;86.13;99823.55;1733560;82;21001;-60
2022/10/09 00:06:02;;;;;;;1.22;0.85;;;;;;;8.25;86.30;99824.66;1736657;82;21141;-61
2022/10/09 00:08:28;;;;;;;3.83;1.12;;;;;;;8.21;86.34;99826.99;1739752;81;20974;-61
2022/10/09 00:10:55;;;;;;;5.20;1.07;;;;;;;8.17;86.40;99834.49;1735670;82;20875;-61
2022/10/09 00:13:22;;;;;;;4.90;1.00;;;;;;;8.13;86.49;99835.52;1738134;82;20919;-61
2022/10/09 00:15:48;;;;;;;3.98;1.10;;;;;;;8.12;86.51;99838.16;1735430;82;22234;-60
2022/10/09 00:18:17;;;;;;;3.57;1.30;;;;;;;8.10;86.69;99840.83;1711846;82;21871;-60
2022/10/09 00:20:46;;;;;;;2.90;0.88;;;;;;;8.14;86.58;99847.61;1729718;82;20866;-60
2022/10/09 00:27:11;;;;;;;2.00;0.90;;;;;;;8.16;86.85;99857.97;1734063;81;20964;-60
2022/10/09 00:29:37;;;;;;;2.87;0.70;;;;;;;8.20;86.97;99854.34;1728667;82;21016;-61
2022/10/09 00:32:04;;;;;;;5.28;1.10;;;;;;;8.22;87.01;99861.19;1734779;82;22059;-60
2022/10/09 00:34:31;;;;;;;3.92;1.00;;;;;;;8.24;87.04;99858.09;1736580;81;20899;-60
2022/10/09 00:36:57;;;;;;;2.10;1.10;;;;;;;8.27;86.98;99864.48;1710681;82;21025;-60
2022/10/09 00:39:24;;;;;;;2.58;1.17;;;;;;;8.34;86.98;99861.66;1737635;82;20971;-61
2022/10/09 00:41:51;;;;;;;4.00;0.80;;;;;;;8.37;86.96;99862.84;1735426;82;20922;-60
2022/10/09 00:44:56;;;;;;;2.00;0.75;;;;;;;8.38;87.04;99863.27;1705489;81;21817;-61
2022/10/09 00:47:39;;;;;;;5.00;1.10;;;;;;;8.38;87.14;99856.77;1746436;79;21495;-60
2022/10/09 00:50:19;;;;;;;3.77;0.80;;;;;;;8.35;87.21;99859.48;1752407;81;21481;-60
2022/10/09 00:52:49;;;;;;;3.00;0.90;;;;;;;8.35;87.21;99855.58;1752984;81;20902;-60
2022/10/09 00:55:16;;;;;;;2.72;0.90;;;;;;;8.35;87.31;99847.77;1748905;81;20963;-61
2022/10/09 00:57:43;;;;;;;3.57;0.90;;;;;;;8.33;87.38;99859.98;1754064;81;21122;-60
2022/10/09 01:00:12;;;;;;;4.65;0.70;;;;;;;8.32;87.38;99858.26;1772813;80;20905;-61
2022/10/09 01:02:39;;;;;;;3.67;1.27;;;;;;;8.34;87.43;99856.45;1746370;81;20907;-60
2022/10/09 01:05:08;;;;;;;4.05;1.40;;;;;;;8.33;87.36;99862.58;1751429;81;20927;-60
2022/10/09 01:07:52;;;;;;;3.17;0.90;;;;;;;8.32;87.29;99859.13;1748589;80;21086;-60
2022/10/09 01:10:43;;;;;;;4.42;1.22;;;;;;;8.30;87.25;99860.47;1754661;81;21059;-60
2022/10/09 01:13:42;;;;;;;1.52;0.75;;;;;;;8.28;87.34;99862.73;1750246;81;20926;-61
2022/10/09 01:16:25;;;;;;;2.85;1.05;;;;;;;8.25;87.34;99866.28;1654346;85;21551;-60
2022/10/09 01:19:45;;;;;;;4.20;1.00;;;;;;;8.20;87.34;99863.45;1675753;84;20998;-61
2022/10/09 01:22:38;;;;;;;3.55;1.30;;;;;;;8.15;87.36;99867.53;1675043;84;20987;-60
2022/10/09 01:25:12;;;;;;;7.75;1.10;;;;;;;8.11;87.42;99868.52;1651942;86;21181;-61
2022/10/09 01:27:40;;;;;;;3.42;1.25;;;;;;;8.09;87.49;99888.52;1704544;83;20883;-60
2022/10/09 01:30:12;;;;;;;5.55;1.00;;;;;;;8.07;87.53;99892.95;1704177;83;20959;-60
2022/10/09 01:32:42;;;;;;;5.15;1.20;;;;;;;8.05;87.52;99894.75;1705525;83;21068;-60
2022/10/09 01:35:12;;;;;;;4.22;1.10;;;;;;;8.04;87.67;99890.46;1714083;83;21033;-60
2022/10/09 01:37:42;;;;;;;2.58;1.15;;;;;;;8.05;87.71;99888.25;1710919;83;20979;-60
2022/10/09 01:40:11;;;;;;;2.67;1.10;;;;;;;8.06;87.78;99896.44;1708555;83;21614;-60
2022/10/09 01:42:38;;;;;;;2.80;1.12;;;;;;;8.07;87.78;99890.35;1709613;83;20994;-60
2022/10/09 01:45:06;;;;;;;2.60;1.00;;;;;;;8.09;87.73;99891.12;1697291;83;21011;-61
2022/10/09 01:47:33;;;;;;;5.72;1.20;;;;;;;8.08;87.66;99897.23;1706156;81;21505;-61
2022/10/09 01:50:28;;;;;;;5.37;1.23;;;;;;;8.05;87.60;99897.34;1700767;81;21097;-60
2022/10/09 01:53:01;;;;;;;2.77;0.90;;;;;;;8.01;87.60;99906.14;1805821;77;20894;-60
2022/10/09 01:55:39;;;;;;;4.05;1.15;;;;;;;7.95;87.62;99906.35;1806784;78;21681;-60
2022/10/09 01:58:14;;;;;;;6.25;1.12;;;;;;;7.90;87.64;99908.25;1808339;78;21056;-60
2022/10/09 02:01:06;;;;;;;3.90;1.27;;;;;;;7.85;87.72;99913.62;1805792;77;20914;-60
2022/10/09 02:03:34;;;;;;;7.22;1.10;;;;;;;7.79;87.77;99915.13;1806129;78;21415;-60
2022/10/09 02:06:05;;;;;;;3.72;1.22;;;;;;;7.78;87.90;99920.75;1807120;77;20996;-61
2022/10/09 02:08:34;;;;;;;2.47;1.17;;;;;;;7.75;87.88;99926.05;1807666;78;20895;-61
2022/10/09 02:11:02;;;;;;;4.05;1.20;;;;;;;7.72;87.94;99928.75;1814228;78;20888;-60
2022/10/09 02:13:31;;;;;;;6.30;1.32;;;;;;;7.72;88.10;99936.55;1810476;78;20915;-61
2022/10/09 02:16:06;;;;;;;2.58;0.90;;;;;;;7.74;88.19;99937.36;1801437;77;21097;-60
2022/10/09 02:18:40;;;;;;;4.90;1.62;;;;;;;7.73;88.19;99940.87;1800335;78;20996;-60
2022/10/09 02:21:22;;;;;;;3.70;1.47;;;;;;;7.75;88.25;99942.95;1805585;78;20914;-60
2022/10/09 02:23:50;;;;;;;5.28;1.50;;;;;;;7.75;88.30;99944.25;1709941;82;21083;-60
2022/10/09 02:26:18;;;;;;;10.43;1.57;;;;;;;7.78;88.43;99950.64;1705568;82;20966;-60
2022/10/09 02:28:45;;;;;;;5.53;1.27;;;;;;;7.79;88.43;99943.27;1712833;82;21855;-60
2022/10/09 02:31:29;;;;;;;5.58;1.32;;;;;;;7.78;88.41;99954.55;1711274;82;20864;-61
2022/10/09 02:34:06;;;;;;;4.83;1.22;;;;;;;7.77;88.43;99955.45;1715194;81;20958;-61
2022/10/09 02:36:34;;;;;;;4.90;1.30;;;;;;;7.76;88.49;99955.06;1703455;82;21200;-60
2022/10/09 02:39:01;;;;;;;;;;;;;;;7.75;88.50;99966.80;1706004;82;20975;-61
2022/10/09 02:41:28;;;;;;;2.72;1.02;;;;;;;7.76;88.76;99964.16;1712101;82;21203;-61
2022/10/09 02:43:54;;;;;;;3.58;1.20;;;;;;;7.78;88.88;99967.54;1708557;82;26079;-60
2022/10/09 02:46:22;;;;;;;2.77;0.85;;;;;;;7.80;88.83;99976.15;1713402;81;20962;-60
2022/10/09 02:48:48;;;;;;;;;;;;;;;7.84;88.95;99976.89;1718992;83;21534;-60
2022/10/09 02:51:16;;;;;;;3.10;1.07;;;;;;;7.87;89.08;99981.14;1718633;81;20816;-60
2022/10/09 02:53:43;;;;;;;;;;;;;;;7.89;89.03;99987.16;1722725;83;21878;-60
2022/10/09 02:56:09;;;;;;;6.90;1.05;;;;;;;7.88;89.05;99977.67;1717427;83;20128;-61
2022/10/09 02:58:36;;;;;;;4.90;1.10;;;;;;;7.85;88.98;99976.86;1716106;81;20946;-60
2022/10/09 03:01:03;;;;;;;2.80;0.78;;;;;;;7.83;88.98;99981.25;1758856;80;20899;-60
2022/10/09 03:03:31;;;;;;;5.72;1.35;;;;;;;7.82;89.00;99982.16;1775986;80;21013;-61
2022/10/09 03:06:10;;;;;;;3.98;1.20;;;;;;;7.78;88.89;99972.73;1776484;80;21042;-60
2022/10/09 03:08:46;;;;;;;6.50;1.30;;;;;;;7.73;88.81;99979.86;1780932;80;21001;-60
2022/10/09 03:11:15;;;;;;;4.10;1.10;;;;;;;7.67;88.86;99981.78;1776686;80;20855;-61
2022/10/09 03:13:42;;;;;;;8.40;1.87;;;;;;;7.60;88.89;99979.83;1782705;79;20954;-61
2022/10/09 03:16:16;;;;;;;4.58;1.17;;;;;;;7.56;88.92;99991.20;1779283;80;21008;-60
2022/10/09 03:18:43;;;;;;;2.17;1.10;;;;;;;7.52;88.95;99993.50;1784172;79;22090;-61
2022/10/09 03:21:19;;;;;;;6.25;1.67;;;;;;;7.48;89.04;99987.98;1774640;80;20930;-60
2022/10/09 03:23:46;;;;;;;5.58;1.20;;;;;;;7.45;89.06;99990.67;1775651;79;20996;-61
2022/10/09 03:26:16;;;;;;;3.17;1.25;;;;;;;7.44;89.15;100003.27;1782588;80;20958;-61
2022/10/09 03:28:46;;;;;;;3.55;0.93;;;;;;;7.42;89.25;99994.66;1776976;80;20922;-61
2022/10/09 03:31:17;;;;;;;4.67;2.22;;;;;;;7.43;89.29;100004.19;1777271;80;21871;-61
2022/10/09 03:33:45;;;;;;;5.28;1.30;;;;;;;7.44;89.36;100008.47;1780184;78;21524;-61
2022/10/09 03:36:12;;;;;;;3.85;1.30;;;;;;;7.44;89.25;100017.56;1778666;80;20950;-62
2022/10/09 03:38:39;;;;;;;8.65;1.42;;;;;;;7.43;89.31;100017.17;1779068;80;21529;-60
2022/10/09 03:41:06;;;;;;;4.25;1.47;;;;;;;7.40;89.17;100019.41;1750392;80;20978;-61
2022/10/09 03:43:34;;;;;;;5.20;1.65;;;;;;;7.37;89.40;100028.59;1778784;80;21062;-60
2022/10/09 03:46:06;;;;;;;3.17;1.27;;;;;;;7.36;89.43;100032.91;1778698;78;21007;-60
2022/10/09 03:48:33;;;;;;;4.70;1.80;;;;;;;7.34;89.40;100029.53;1811646;78;20932;-60
2022/10/09 03:51:00;;;;;;;5.28;1.30;;;;;;;7.35;89.52;100032.52;1811171;78;20918;-60
2022/10/09 03:53:27;;;;;;;3.27;1.20;;;;;;;7.35;89.58;100036.87;1815556;78;21018;-60
2022/10/09 03:55:53;;;;;;;4.35;1.55;;;;;;;7.36;89.58;100038.56;1814213;78;21081;-60
2022/10/09 03:58:20;;;;;;;7.60;2.00;;;;;;;7.37;89.65;100045.03;1816409;78;20974;-60
2022/10/09 04:00:50;;;;;;;6.58;2.67;;;;;;;7.40;89.66;100038.89;1819706;78;21023;-60
2022/10/09 04:03:16;;;;;;;5.62;1.85;;;;;;;7.42;89.73;100049.22;1811810;78;20884;-60
2022/10/09 04:05:43;;;;;;;3.50;1.30;;;;;;;7.44;89.85;100044.84;1810860;78;21045;-60
2022/10/09 04:08:10;;;;;;;4.20;1.50;;;;;;;7.46;89.88;100049.09;1808484;78;21194;-61
2022/10/09 04:10:37;;;;;;;3.95;1.90;;;;;;;7.50;89.78;100052.45;1818471;78;20851;-60
2022/10/09 04:13:04;;;;;;;9.08;2.02;;;;;;;7.48;89.75;100056.83;1814061;78;20993;-60
2022/10/09 04:15:30;;;;;;;3.77;1.35;;;;;;;7.46;89.75;100056.05;1810598;78;21442;-60
2022/10/09 04:17:57;;;;;;;1.62;1.02;;;;;;;7.42;89.77;100060.91;1811354;78;21442;-61
2022/10/09 04:20:24;;;;;;;2.45;1.15;;;;;;;7.39;89.83;100064.03;1813387;78;20996;-60
2022/10/09 04:22:50;;;;;;;5.10;1.27;;;;;;;7.39;89.90;100065.75;1810389;78;20976;-61
2022/10/09 04:25:17;;;;;;;3.50;1.20;;;;;;;7.38;89.98;100067.50;1812269;78;20851;-61
2022/10/09 04:27:44;;;;;;;7.10;1.40;;;;;;;7.37;89.93;100076.20;1811914;78;21477;-60
2022/10/09 04:30:11;;;;;;;3.47;1.20;;;;;;;7.29;89.97;100072.97;1810837;78;20984;-60
2022/10/09 04:32:38;;;;;;;;;;;;;;;7.29;89.97;100072.97;1808167;78;21934;-60
2022/10/09 04:35:05;;;;;;;3.00;1.00;;;;;;;7.27;89.99;100076.05;1814016;78;20078;-60
2022/10/09 04:37:33;;;;;;;3.27;1.20;;;;;;;7.25;90.14;100072.62;1813505;78;20943;-60
2022/10/09 04:39:59;;;;;;;;;;;;;;;7.24;90.19;100073.53;1817174;78;21456;-60
2022/10/09 04:42:26;;;;;;;6.00;1.98;;;;;;;7.24;90.30;100085.22;1817063;78;20456;-61
2022/10/09 04:44:52;;;;;;;5.12;1.82;;;;;;;7.27;90.45;100085.13;1815556;78;21122;-60
2022/10/09 04:47:19;;;;;;;4.40;1.53;;;;;;;7.33;90.53;100084.95;1811522;78;20949;-60
2022/10/09 04:49:46;;;;;;;7.58;2.17;;;;;;;7.37;90.55;100088.34;1810598;78;20890;-60
2022/10/09 04:52:13;;;;;;;6.00;1.85;;;;;;;7.39;90.42;100099.09;1802797;78;21423;-61
2022/10/09 04:54:40;;;;;;;3.02;1.37;;;;;;;7.38;90.45;100090.88;1800751;78;21451;-60
2022/10/09 04:57:06;;;;;;;10.63;1.60;;;;;;;7.39;90.39;100105.59;1803461;78;21030;-60
2022/10/09 04:59:33;;;;;;;3.30;1.20;;;;;;;7.38;90.40;100101.27;1805643;78;20887;-61
2022/10/09 05:02:00;;;;;;;1.62;0.75;;;;;;;7.38;90.48;100101.72;1806359;78;21426;-61
2022/10/09 05:04:26;;;;;;;1.85;0.85;;;;;;;7.39;90.54;100097.80;1804617;78;20979;-60
2022/10/09 05:06:53;;;;;;;3.83;1.23;;;;;;;7.39;90.53;100108.19;1804973;78;21073;-60
2022/10/09 05:09:20;;;;;;;7.70;1.25;;;;;;;7.38;90.56;100109.06;1809786;77;21839;-61
2022/10/09 05:11:46;;;;;;;4.63;1.00;;;;;;;7.38;90.55;100115.56;1804836;78;21411;-61
2022/10/09 05:14:13;;;;;;;5.33;1.00;;;;;;;7.38;90.61;100111.66;1807714;77;20848;-61
2022/10/09 05:16:40;;;;;;;4.17;1.12;;;;;;;7.39;90.59;100122.48;1809962;78;20887;-61
2022/10/09 05:19:06;;;;;;;4.00;1.00;;;;;;;7.39;90.65;100128.09;1805027;78;20963;-61
2022/10/09 05:21:35;;;;;;;4.07;1.33;;;;;;;7.40;90.81;100128.07;1808456;78;21870;-61
2022/10/09 05:24:01;;;;;;;2.47;1.00;;;;;;;7.44;90.77;100133.17;1807722;78;20941;-60
2022/10/09 05:26:28;;;;;;;4.23;1.40;;;;;;;7.46;90.78;100131.39;1810911;77;21668;-60
2022/10/09 05:28:55;;;;;;;4.95;1.40;;;;;;;7.49;90.94;100137.80;1799117;78;21075;-59
2022/10/09 05:31:26;;;;;;;4.67;1.25;;;;;;;7.53;90.99;100135.51;1808163;77;20939;-61
2022/10/09 05:33:55;;;;;;;2.85;1.25;;;;;;;7.60;91.02;100142.25;1808876;78;21198;-60
2022/10/09 05:36:22;;;;;;;2.50;1.05;;;;;;;7.67;91.00;100141.16;1803840;78;21496;-60
2022/10/09 05:38:49;;;;;;;7.55;1.62;;;;;;;7.73;90.99;100142.73;1806069;78;20935;-60
2022/10/09 05:41:18;;;;;;;5.43;1.73;;;;;;;7.78;90.93;100144.30;1804223;77;21429;-60
2022/10/09 05:43:47;;;;;;;4.08;1.40;;;;;;;7.80;90.91;100151.62;1814231;78;20851;-61
2022/10/09 05:46:18;;;;;;;4.37;1.47;;;;;;;7.82;90.94;100151.13;1814390;77;21809;-60
2022/10/09 05:48:49;;;;;;;3.72;1.22;;;;;;;7.90;91.01;100151.34;1812115;78;20896;-60
2022/10/09 05:51:20;;;;;;;6.08;0.93;;;;;;;7.99;91.04;100154.99;1805899;78;20925;-61
2022/10/09 05:53:48;;;;;;;2.45;0.80;;;;;;;8.20;91.52;100156.92;1810230;78;21494;-60
2022/10/09 05:56:26;;;;;;;2.15;0.85;;;;;;;8.60;91.42;100165.27;1819034;78;21404;-61
2022/10/09 05:59:09;;;;;;;4.40;0.95;;;;;;;8.80;91.07;100165.95;1817885;78;21021;-60
2022/10/09 06:01:40;;;;;;;4.20;1.25;;;;;;;8.99;91.02;100167.47;1819875;78;37509;-61
2022/10/09 06:04:13;;;;;;;6.08;1.67;;;;;;;9.08;90.72;100175.84;1814607;78;21478;-60
2022/10/09 06:06:40;;;;;;;6.28;1.50;;;;;;;9.31;90.86;100175.50;1810743;78;20921;-61
2022/10/09 06:09:09;;;;;;;2.45;0.90;;;;;;;9.51;90.97;100182.16;1813937;78;20957;-61
2022/10/09 06:11:38;;;;;;;3.77;1.10;;;;;;;9.95;91.04;100177.55;1810326;78;21048;-60
2022/10/09 06:14:09;;;;;;;4.10;1.22;;;;;;;10.12;90.45;100189.50;1805402;78;20968;-60
2022/10/09 06:16:40;;;;;;;2.55;1.15;;;;;;;10.22;90.52;100192.59;1815881;78;21508;-61
2022/10/09 06:19:07;;;;;;;19.35;10.18;;;;;;;10.41;90.58;100193.62;1817843;78;20931;-61
2022/10/09 06:21:34;;;;;;;;;;;;;;;10.70;90.54;100199.47;1781112;78;21445;-61
2022/10/09 06:24:03;;;;;;;27.93;22.00;;;;;;;10.78;90.00;100205.21;1811541;78;20976;-61
2022/10/09 06:26:30;;;;;;;65.12;36.33;;;;;;;10.74;90.00;100211.48;1813163;78;20905;-61
2022/10/09 06:28:58;;;;;;;;;;;;;;;10.70;89.78;100215.14;1816767;78;21436;-61
2022/10/09 06:31:28;;;;;;;196.35;99.90;;;;;;;10.66;89.96;100224.00;1821384;78;20427;-61
2022/10/09 06:33:57;;;;;;;97.65;59.85;;;;;;;10.72;90.33;100214.14;1817889;78;20888;-61
2022/10/09 06:36:28;;;;;;;15.53;8.63;;;;;;;10.76;90.05;100229.26;1755996;80;21032;-61
2022/10/09 06:38:59;;;;;;;6.17;2.37;;;;;;;11.08;90.08;100227.09;1756914;80;20942;-62
2022/10/09 06:41:28;;;;;;;6.72;1.92;;;;;;;11.33;90.28;100230.37;1780897;80;20941;-62
2022/10/09 06:44:00;;;;;;;2.58;1.07;;;;;;;11.33;90.28;100230.37;1769284;80;20895;-62
2022/10/09 06:46:31;;;;;;;6.28;1.47;;;;;;;11.68;90.56;100243.73;1762686;80;21527;-62
2022/10/09 06:49:01;;;;;;;5.55;1.65;;;;;;;12.10;90.43;100242.77;1798521;78;21040;-61
2022/10/09 06:51:31;;;;;;;2.70;1.10;;;;;;;12.35;90.23;100242.94;1820863;78;20947;-61
2022/10/09 06:54:02;;;;;;;3.22;1.20;;;;;;;12.60;90.03;100255.27;1821745;78;20915;-61
2022/10/09 06:56:31;;;;;;;3.50;0.90;;;;;;;12.81;89.85;100252.58;1747335;81;21401;-61
2022/10/09 06:59:04;;;;;;;2.62;1.07;;;;;;;13.02;89.75;100262.47;1756702;80;21499;-61
2022/10/09 07:01:31;;;;;;;6.42;1.60;;;;;;;12.97;88.87;100265.34;1758495;81;21643;-62
2022/10/09 07:04:01;;;;;;;6.62;1.80;;;;;;;12.78;88.63;100269.76;1758062;81;21479;-62
2022/10/09 07:06:31;;;;;;;3.55;0.90;;;;;;;12.81;88.81;100274.85;1762417;80;20911;-61
2022/10/09 07:09:01;;;;;;;2.90;0.85;;;;;;;13.01;89.36;100279.97;1757886;81;20970;-61
2022/10/09 07:11:33;;;;;;;3.83;1.17;;;;;;;13.10;88.82;100279.52;1755792;81;21649;-62
2022/10/09 07:14:04;;;;;;;5.12;0.98;;;;;;;13.11;89.21;100274.69;1759364;81;21087;-61
2022/10/09 07:16:38;;;;;;;4.33;1.02;;;;;;;13.26;89.38;100287.99;1759305;81;20947;-60
2022/10/09 07:19:07;;;;;;;4.60;1.27;;;;;;;13.31;88.81;100287.31;1775481;80;20918;-61
2022/10/09 07:21:40;;;;;;;3.42;1.02;;;;;;;13.16;88.59;100292.36;1774203;79;21448;-61
2022/10/09 07:24:07;;;;;;;5.85;0.75;;;;;;;13.07;88.59;100298.02;1776967;79;20993;-61
2022/10/09 07:26:37;;;;;;;5.87;1.00;;;;;;;13.01;88.76;100297.02;1779225;80;21023;-61
2022/10/09 07:29:06;;;;;;;4.25;1.72;;;;;;;12.87;88.09;100301.60;1781003;79;20926;-61
2022/10/09 07:31:33;;;;;;;5.50;1.15;;;;;;;12.66;88.38;100313.95;1782666;80;21453;-61
2022/10/09 07:34:00;;;;;;;4.00;1.90;;;;;;;12.55;88.30;100308.36;1780832;80;20871;-62
2022/10/09 07:36:27;;;;;;;5.35;1.37;;;;;;;12.51;88.94;100310.25;1779310;79;21445;-61
2022/10/09 07:38:56;;;;;;;5.78;1.45;;;;;;;12.62;88.73;100315.00;1779103;79;21059;-62
2022/10/09 07:41:25;;;;;;;5.85;1.20;;;;;;;12.68;88.96;100306.85;1786607;79;20925;-62
2022/10/09 07:43:52;;;;;;;5.00;1.07;;;;;;;12.64;88.67;100315.79;1780051;79;20914;-61
2022/10/09 07:46:21;;;;;;;3.10;0.93;;;;;;;12.58;88.44;100318.70;1778831;79;20950;-62
2022/10/09 07:48:49;;;;;;;3.65;1.10;;;;;;;12.49;88.30;100321.72;1779996;79;20962;-62
2022/10/09 07:51:24;;;;;;;4.30;1.00;;;;;;;12.34;86.79;100323.27;1780035;78;21492;-62
2022/10/09 07:53:52;;;;;;;3.17;1.30;;;;;;;12.20;88.02;100336.97;1779282;79;20930;-60
2022/10/09 07:56:23;;;;;;;5.00;0.90;;;;;;;12.19;87.52;100334.44;1777791;80;20979;-60
2022/10/09 07:58:58;;;;;;;5.22;1.50;;;;;;;12.12;87.71;100337.77;1780278;78;20925;-61
2022/10/09 08:01:26;;;;;;;4.25;1.25;;;;;;;12.08;87.86;100344.06;1782008;79;20977;-60
2022/10/09 08:03:54;;;;;;;7.37;1.40;;;;;;;12.12;87.42;100336.45;1781451;80;20989;-61
2022/10/09 08:06:21;;;;;;;3.12;1.17;;;;;;;12.19;88.46;100343.14;1779433;80;27492;-60
2022/10/09 08:08:55;;;;;;;3.72;0.88;;;;;;;12.29;87.53;100349.68;1778369;79;20859;-60
2022/10/09 08:11:23;;;;;;;4.42;0.90;;;;;;;12.35;87.79;100350.30;1784144;80;20985;-60
2022/10/09 08:13:51;;;;;;;3.37;0.88;;;;;;;12.46;87.91;100340.19;1778021;79;20981;-60
2022/10/09 08:16:19;;;;;;;5.97;1.15;;;;;;;12.47;87.47;100349.77;1779836;80;27356;-60
2022/10/09 08:18:47;;;;;;;3.45;1.05;;;;;;;12.44;86.74;100349.91;1778129;80;21543;-60
2022/10/09 08:21:17;;;;;;;3.60;1.00;;;;;;;12.43;87.27;100352.12;1783339;80;20999;-60
2022/10/09 08:23:44;;;;;;;4.22;1.00;;;;;;;12.44;86.90;100355.99;1777568;80;20913;-60
2022/10/09 08:26:18;;;;;;;2.33;1.02;;;;;;;12.52;87.14;100358.27;1779234;79;20898;-60
2022/10/09 08:28:49;;;;;;;6.35;1.30;;;;;;;12.66;87.46;100361.12;1782867;79;21555;-60
2022/10/09 08:31:17;;;;;;;3.70;1.02;;;;;;;12.78;86.62;100374.58;1780811;78;20929;-60
2022/10/09 08:33:44;;;;;;;2.92;1.10;;;;;;;12.79;86.65;100369.71;1780661;79;20937;-60
2022/10/09 08:36:15;;;;;;;2.77;1.00;;;;;;;13.06;87.19;100374.98;1781218;80;20985;-60
2022/10/09 08:38:43;;;;;;;3.75;1.20;;;;;;;13.17;85.97;100377.95;1778394;79;21038;-60
2022/10/09 08:41:15;;;;;;;;;;;;;;;13.27;86.57;100380.16;1783588;79;21026;-60
2022/10/09 08:43:47;;;;;;;4.42;1.20;;;;;;;13.33;86.36;100382.48;1779269;80;20143;-59
2022/10/09 08:46:35;;;;;;;4.25;0.80;;;;;;;13.32;86.30;100386.03;1778852;80;20977;-60
2022/10/09 08:49:09;;;;;;;3.50;0.88;;;;;;;13.36;85.83;100392.81;1776930;79;20934;-60
2022/10/09 08:51:38;;;;;;;6.47;0.98;;;;;;;13.10;85.20;100392.26;1772935;80;20935;-59
2022/10/09 08:54:16;;;;;;;5.55;0.93;;;;;;;13.16;84.80;100399.86;1746674;80;21788;-62
2022/10/09 08:56:50;;;;;;;3.45;0.93;;;;;;;13.10;85.21;100392.26;1771432;80;20950;-61
2022/10/09 08:59:17;;;;;;;6.58;1.17;;;;;;;13.27;85.73;100401.13;1776793;80;21009;-61
2022/10/09 09:02:10;;;;;;;3.58;0.98;;;;;;;13.37;85.44;100405.03;1747535;81;21660;-61
2022/10/09 09:05:05;;;;;;;3.27;1.10;;;;;;;13.49;85.38;100403.11;1675452;84;20973;-61
2022/10/09 09:07:43;;;;;;;5.28;1.12;;;;;;;13.68;84.16;100402.23;1674372;85;21448;-61
2022/10/09 09:10:35;;;;;;;3.52;0.98;;;;;;;13.77;84.33;100405.70;1724915;81;20870;-62
2022/10/09 09:13:30;;;;;;;3.85;1.32;;;;;;;13.84;82.30;100407.11;1730070;81;21570;-61
2022/10/09 09:16:19;;;;;;;5.17;1.10;;;;;;;13.86;83.84;100411.36;1727290;81;20990;-60
2022/10/09 09:19:00;;;;;;;7.12;1.22;;;;;;;13.71;83.08;100408.64;1730635;81;21501;-61
2022/10/09 09:21:52;;;;;;;4.00;0.95;;;;;;;13.49;82.71;100416.23;1729903;81;21199;-61
2022/10/09 09:24:24;;;;;;;8.15;1.42;;;;;;;13.24;82.92;100419.61;1728581;81;21467;-60
2022/10/09 09:26:54;;;;;;;5.55;1.07;;;;;;;13.05;82.23;100422.23;1724933;81;21039;-59
2022/10/09 09:29:23;;;;;;;3.30;1.00;;;;;;;13.07;83.04;100421.23;1732209;81;21603;-60
2022/10/09 09:31:55;;;;;;;3.77;1.20;;;;;;;13.52;84.08;100414.77;1724981;81;20899;-61
2022/10/09 09:34:38;;;;;;;5.42;1.60;;;;;;;13.85;83.86;100419.30;1730367;82;21144;-60
2022/10/09 09:37:06;;;;;;;3.65;0.93;;;;;;;14.13;82.90;100421.86;1729376;81;20867;-61
2022/10/09 09:39:38;;;;;;;6.05;1.02;;;;;;;14.06;82.57;100418.23;1705654;81;20898;-60
2022/10/09 09:42:20;;;;;;;3.60;0.98;;;;;;;13.95;81.47;100431.05;1789639;78;20997;-60
2022/10/09 09:45:00;;;;;;;4.42;1.00;;;;;;;13.80;81.21;100431.80;1793936;78;20883;-61
2022/10/09 09:47:37;;;;;;;3.45;0.80;;;;;;;13.80;81.79;100430.48;1808937;78;20867;-61
2022/10/09 09:50:07;;;;;;;3.85;1.07;;;;;;;13.65;80.58;100423.75;1816829;78;20962;-64
2022/10/09 09:52:42;;;;;;;4.87;0.80;;;;;;;13.63;78.65;100433.47;1820096;78;21436;-63
2022/10/09 09:55:26;;;;;;;3.27;0.75;;;;;;;13.52;79.69;100427.89;1819433;78;20996;-64
2022/10/09 09:58:07;;;;;;;5.53;1.62;;;;;;;13.43;79.68;100438.83;1816752;78;20883;-62
2022/10/09 10:00:39;;;;;;;6.60;1.27;;;;;;;13.33;79.40;100433.63;1815210;78;22077;-63
2022/10/09 10:03:16;;;;;;;4.00;1.32;;;;;;;13.34;79.68;100439.28;1814185;78;20921;-60
2022/10/09 10:05:44;;;;;;;2.70;0.62;;;;;;;13.62;80.96;100437.02;1817385;78;21442;-62
2022/10/09 10:08:21;;;;;;;2.42;0.70;;;;;;;13.88;79.01;100434.89;1792854;78;20937;-62
2022/10/09 10:10:49;;;;;;;;;;;;;;;14.14;80.46;100433.58;1821149;78;20937;-63
2022/10/09 10:13:21;;;;;;;3.83;0.90;;;;;;;14.23;77.91;100442.80;1813386;78;21121;-64
2022/10/09 10:15:57;;;;;;;4.85;1.17;;;;;;;13.92;77.88;100445.64;1813629;78;20984;-62
2022/10/09 10:18:29;;;;;;;5.03;1.10;;;;;;;13.74;77.22;100447.37;1815007;78;21038;-61
2022/10/09 10:21:03;;;;;;;4.28;0.60;;;;;;;13.45;76.67;100451.42;1820209;78;20961;-60
2022/10/09 10:23:40;;;;;;;5.35;1.15;;;;;;;13.15;75.94;100452.36;1814356;78;21549;-61
2022/10/09 10:26:45;;;;;;;4.80;0.85;;;;;;;12.78;75.89;100458.43;1813778;78;21008;-61
2022/10/09 10:29:22;;;;;;;2.67;1.10;;;;;;;12.47;75.82;100463.70;1727912;81;21423;-60
2022/10/09 10:32:18;;;;;;;8.40;0.90;;;;;;;12.33;76.61;100464.76;1728205;82;21499;-60
2022/10/09 10:34:56;;;;;;;5.55;1.55;;;;;;;12.54;77.93;100463.81;1730074;82;21008;-60
2022/10/09 10:37:51;;;;;;;5.47;1.55;;;;;;;13.02;78.52;100453.37;1715758;82;20978;-60
2022/10/09 10:40:22;;;;;;;2.75;0.70;;;;;;;13.57;78.83;100454.76;1647467;86;21078;-60
2022/10/09 10:43:15;;;;;;;3.25;1.12;;;;;;;13.94;77.33;100456.05;1639316;86;21460;-60
2022/10/09 10:46:06;;;;;;;4.87;1.17;;;;;;;14.18;77.51;100459.25;1646559;86;20914;-60
2022/10/09 10:48:40;;;;;;;1.70;0.78;;;;;;;14.21;77.25;100460.40;1635120;85;21607;-60
2022/10/09 10:51:43;;;;;;;5.03;0.95;;;;;;;14.36;77.14;100456.13;1632770;87;21492;-60
2022/10/09 10:54:33;;;;;;;6.37;1.15;;;;;;;14.53;77.81;100459.61;1630569;87;21130;-60
2022/10/09 10:57:27;;;;;;;2.80;0.53;;;;;;;14.71;76.69;100460.45;1631175;87;20994;-60
2022/10/09 11:00:05;;;;;;;2.42;0.93;;;;;;;14.35;73.56;100468.42;1632909;87;20958;-60
2022/10/09 11:02:42;;;;;;;5.65;0.95;;;;;;;13.98;73.63;100474.69;1644867;85;21528;-61
2022/10/09 11:05:46;;;;;;;5.85;1.50;;;;;;;13.73;74.51;100472.41;1643807;87;20950;-61
2022/10/09 11:08:23;;;;;;;4.08;0.95;;;;;;;13.52;74.40;100477.73;1637492;87;21065;-60
2022/10/09 11:11:04;;;;;;;4.97;1.00;;;;;;;13.43;74.99;100469.84;1650584;86;21555;-61
2022/10/09 11:13:45;;;;;;;3.42;1.10;;;;;;;13.23;74.77;100469.05;1654828;81;20937;-61
2022/10/09 11:16:38;;;;;;;2.72;1.30;;;;;;;13.11;75.11;100467.39;1738826;82;21068;-61
2022/10/09 11:19:28;;;;;;;3.05;0.85;;;;;;;13.07;73.85;100454.02;1775225;80;20961;-62
2022/10/09 11:22:09;;;;;;;5.92;1.85;;;;;;;13.05;72.14;100467.67;1775855;78;21831;-61
2022/10/09 11:24:50;;;;;;;4.85;0.80;;;;;;;13.08;74.27;100463.59;1779240;80;20929;-63
2022/10/09 11:27:43;;;;;;;2.72;0.88;;;;;;;13.23;75.00;100454.63;1777384;79;21469;-64
2022/10/09 11:30:13;;;;;;;5.40;1.17;;;;;;;13.39;73.99;100472.70;1782157;80;21563;-64
2022/10/09 11:33:06;;;;;;;4.15;0.90;;;;;;;13.48;73.94;100474.03;1778639;79;22186;-64
2022/10/09 11:35:52;;;;;;;4.25;0.88;;;;;;;13.48;73.79;100465.70;1689202;83;21058;-63
2022/10/09 11:38:39;;;;;;;3.02;0.90;;;;;;;13.64;74.29;100468.45;1673306;84;20950;-61
2022/10/09 11:41:06;;;;;;;2.87;0.85;;;;;;;13.98;74.97;100470.28;1675194;83;21157;-62
2022/10/09 11:43:44;;;;;;;3.30;0.80;;;;;;;14.23;73.43;100467.75;1677420;84;20985;-62
2022/10/09 11:46:44;;;;;;;3.90;1.05;;;;;;;14.36;73.89;100463.55;1728962;81;20886;-62
2022/10/09 11:49:27;;;;;;;3.98;0.98;;;;;;;14.51;74.29;100471.97;1718747;81;21143;-62
2022/10/09 11:52:17;;;;;;;3.80;0.90;;;;;;;14.52;73.21;100461.02;1702480;82;20920;-62
2022/10/09 11:54:44;;;;;;;4.87;1.27;;;;;;;14.35;71.92;100473.67;1700888;82;20983;-62
2022/10/09 11:57:10;;;;;;;8.95;1.20;;;;;;;14.20;72.18;100470.50;1704346;82;21742;-62
2022/10/09 11:59:47;;;;;;;10.20;2.27;;;;;;;14.25;72.55;100468.02;1698744;83;21498;-62
2022/10/09 12:02:29;;;;;;;3.42;1.00;;;;;;;14.39;73.23;100474.36;1701090;82;21540;-62
2022/10/09 12:04:56;;;;;;;4.25;1.47;;;;;;;14.60;71.43;100468.52;1686170;84;21017;-62